Time;durP1;ratioP1;P1;durP2;ratioP2;P2;SDS_P1;SDS_P2;PMS_P1;PMS_P2;Temp;Humidity;BMP_temperature;BMP_pressure;BME280_temperature;BME280_humidity;BME280_pressure;Samples;Min_cycle;Max_cycle;Signal;HPM_P1;HPM_P2
2020/12/24 00:02:07;;;;;;;3.95;1.50;;;11.60;94.80;;;;;;4990322;28;20594;-57
2020/12/24 00:04:32;;;;;;;3.80;1.55;;;11.60;94.70;;;;;;4980761;28;20058;-57
2020/12/24 00:06:58;;;;;;;3.28;1.30;;;11.60;94.80;;;;;;4985858;28;20054;-57
2020/12/24 00:09:23;;;;;;;2.92;1.60;;;11.60;94.70;;;;;;4981766;28;20027;-57
2020/12/24 00:11:49;;;;;;;2.17;1.10;;;11.60;94.80;;;;;;4971759;28;20082;-57
2020/12/24 00:14:14;;;;;;;2.75;1.50;;;11.60;94.70;;;;;;4979224;28;20162;-57
2020/12/24 00:16:40;;;;;;;5.72;1.50;;;11.60;94.80;;;;;;4986067;28;20486;-57
2020/12/24 00:19:05;;;;;;;3.78;1.67;;;11.50;94.70;;;;;;4985663;28;20024;-57
2020/12/24 00:21:37;;;;;;;3.30;1.40;;;11.50;94.70;;;;;;4989088;28;20026;-56
2020/12/24 00:24:03;;;;;;;4.65;1.33;;;11.50;94.70;;;;;;4988685;28;20030;-56
2020/12/24 00:26:29;;;;;;;2.22;1.38;;;11.50;94.70;;;;;;4986074;28;20038;-57
2020/12/24 00:28:54;;;;;;;2.25;1.20;;;11.50;94.70;;;;;;4986720;28;20033;-58
2020/12/24 00:31:20;;;;;;;4.43;1.48;;;11.50;94.70;;;;;;4988751;28;20026;-56
2020/12/24 00:33:45;;;;;;;3.00;1.20;;;11.50;94.70;;;;;;4987617;28;20517;-56
2020/12/24 00:36:11;;;;;;;1.92;1.30;;;11.50;94.70;;;;;;4989045;28;20069;-57
2020/12/24 00:38:36;;;;;;;2.47;1.25;;;11.50;94.70;;;;;;4986438;28;20093;-60
2020/12/24 00:41:02;;;;;;;3.40;1.45;;;11.50;94.70;;;;;;4989194;28;20547;-58
2020/12/24 00:43:27;;;;;;;4.45;1.50;;;11.50;94.70;;;;;;4986864;28;20045;-58
2020/12/24 00:45:53;;;;;;;4.13;1.25;;;11.40;94.60;;;;;;4988801;28;20110;-57
2020/12/24 00:48:18;;;;;;;2.00;1.17;;;11.40;94.60;;;;;;4987795;28;20065;-57
2020/12/24 00:50:44;;;;;;;5.60;1.30;;;11.40;94.60;;;;;;4987811;28;20034;-56
2020/12/24 00:53:09;;;;;;;4.15;1.20;;;11.40;94.60;;;;;;4986242;28;20047;-56
2020/12/24 00:55:35;;;;;;;4.22;1.60;;;11.40;94.60;;;;;;4990123;28;20026;-57
2020/12/24 00:58:00;;;;;;;2.33;1.10;;;11.40;94.60;;;;;;4989028;28;20022;-58
2020/12/24 01:00:26;;;;;;;3.17;1.20;;;11.40;94.60;;;;;;4987189;28;20539;-56
2020/12/24 01:02:51;;;;;;;2.22;1.02;;;11.40;94.60;;;;;;4985566;28;20501;-56
2020/12/24 01:05:17;;;;;;;4.63;1.10;;;11.40;94.60;;;;;;4985301;28;20038;-57
2020/12/24 01:07:44;;;;;;;2.72;1.30;;;11.30;94.60;;;;;;4986063;28;20466;-57
2020/12/24 01:10:10;;;;;;;2.75;0.90;;;11.40;94.60;;;;;;4988671;28;20046;-58
2020/12/24 01:12:35;;;;;;;3.20;1.10;;;11.30;94.60;;;;;;4987262;28;20427;-58
2020/12/24 01:15:04;;;;;;;3.65;1.65;;;11.30;94.60;;;;;;4989987;28;20034;-57
2020/12/24 01:17:29;;;;;;;3.35;1.10;;;11.30;94.60;;;;;;4985994;28;20038;-58
2020/12/24 01:19:55;;;;;;;2.55;1.40;;;11.30;94.60;;;;;;4992998;28;20026;-57
2020/12/24 01:22:20;;;;;;;2.22;0.98;;;11.30;94.60;;;;;;4992364;28;20488;-57
2020/12/24 01:24:45;;;;;;;1.15;0.80;;;11.30;94.60;;;;;;4988225;28;20067;-57
2020/12/24 01:27:11;;;;;;;2.45;1.20;;;11.30;94.60;;;;;;4985393;28;20106;-57
2020/12/24 01:29:36;;;;;;;1.70;1.02;;;11.30;94.60;;;;;;4992575;28;20030;-57
2020/12/24 01:32:02;;;;;;;2.75;1.00;;;11.30;94.60;;;;;;4987544;28;20490;-57
2020/12/24 01:34:28;;;;;;;1.30;0.93;;;11.30;94.60;;;;;;4987456;28;20038;-56
2020/12/24 01:36:53;;;;;;;1.58;1.10;;;11.30;94.60;;;;;;4984347;28;20030;-57
2020/12/24 01:39:19;;;;;;;1.55;0.90;;;11.30;94.60;;;;;;4988394;28;20069;-58
2020/12/24 01:41:47;;;;;;;2.83;1.20;;;11.30;94.60;;;;;;4988569;28;20054;-56
2020/12/24 01:44:12;;;;;;;3.25;0.90;;;11.30;94.50;;;;;;4988669;28;20124;-58
2020/12/24 01:46:38;;;;;;;2.80;1.05;;;11.30;94.50;;;;;;4991390;28;20478;-57
2020/12/24 01:49:03;;;;;;;2.65;1.20;;;11.20;94.50;;;;;;4993202;28;20090;-57
2020/12/24 01:51:30;;;;;;;1.58;0.80;;;11.20;94.50;;;;;;4992957;28;20037;-57
2020/12/24 01:53:59;;;;;;;3.22;0.73;;;11.20;94.60;;;;;;4990648;28;20026;-56
2020/12/24 01:56:25;;;;;;;2.25;0.90;;;11.20;94.60;;;;;;4990238;28;20172;-57
2020/12/24 01:58:51;;;;;;;1.75;1.10;;;11.20;94.60;;;;;;4971354;28;20550;-57
2020/12/24 02:01:17;;;;;;;1.77;0.80;;;11.20;94.60;;;;;;4986702;28;20063;-57
2020/12/24 02:03:42;;;;;;;2.08;0.90;;;11.20;94.60;;;;;;4992764;28;20394;-58
2020/12/24 02:06:08;;;;;;;3.25;1.15;;;11.20;94.60;;;;;;4992590;28;20034;-56
2020/12/24 02:08:33;;;;;;;3.88;1.10;;;11.10;94.60;;;;;;4990941;28;20205;-58
2020/12/24 02:10:59;;;;;;;1.70;0.95;;;11.20;94.60;;;;;;4989545;28;20034;-57
2020/12/24 02:13:25;;;;;;;2.22;0.90;;;11.20;94.60;;;;;;4991567;28;20019;-56
2020/12/24 02:15:51;;;;;;;2.63;1.00;;;11.20;94.60;;;;;;4992432;28;20030;-57
2020/12/24 02:18:16;;;;;;;3.33;1.42;;;11.20;94.50;;;;;;4990863;28;20041;-57
2020/12/24 02:20:43;;;;;;;4.10;1.42;;;11.20;94.50;;;;;;4991922;28;20037;-57
2020/12/24 02:23:09;;;;;;;2.63;1.17;;;11.10;94.60;;;;;;4990993;28;20121;-56
2020/12/24 02:25:34;;;;;;;1.40;1.00;;;11.10;94.60;;;;;;4990614;28;20437;-56
2020/12/24 02:28:00;;;;;;;4.85;1.27;;;11.10;94.50;;;;;;4991833;28;20578;-57
2020/12/24 02:30:25;;;;;;;2.88;1.15;;;11.10;94.60;;;;;;4990749;28;20057;-56
2020/12/24 02:32:51;;;;;;;1.58;0.82;;;11.10;94.60;;;;;;4991425;28;20113;-56
2020/12/24 02:35:16;;;;;;;2.45;0.90;;;11.10;94.50;;;;;;4990665;28;20019;-56
2020/12/24 02:37:42;;;;;;;1.35;0.80;;;11.10;94.50;;;;;;4990971;28;20038;-57
2020/12/24 02:40:07;;;;;;;0.77;0.55;;;11.00;94.30;;;;;;4974527;28;20498;-56
2020/12/24 02:42:33;;;;;;;0.73;0.57;;;11.00;94.20;;;;;;4992550;28;20037;-56
2020/12/24 02:44:58;;;;;;;2.53;1.02;;;11.00;94.20;;;;;;4987481;28;20568;-58
2020/12/24 02:47:24;;;;;;;1.15;0.82;;;10.90;94.20;;;;;;4987259;28;20096;-57
2020/12/24 02:49:49;;;;;;;1.88;0.90;;;10.90;94.20;;;;;;4983980;28;20035;-57
2020/12/24 02:52:15;;;;;;;1.60;0.80;;;10.90;94.20;;;;;;4989031;28;20421;-57
2020/12/24 02:54:40;;;;;;;2.10;0.80;;;10.90;94.10;;;;;;4984460;28;20434;-57
2020/12/24 02:57:06;;;;;;;1.77;0.80;;;10.90;94.10;;;;;;4988705;28;20037;-57
2020/12/24 02:59:31;;;;;;;1.05;0.80;;;10.90;94.10;;;;;;4985320;28;20399;-56
2020/12/24 03:01:57;;;;;;;1.77;0.70;;;10.90;94.10;;;;;;4986940;28;20038;-57
2020/12/24 03:04:22;;;;;;;3.65;1.08;;;10.80;94.10;;;;;;4985982;28;20069;-57
2020/12/24 03:06:48;;;;;;;1.65;0.70;;;10.80;94.40;;;;;;5006667;28;20092;-57
2020/12/24 03:09:13;;;;;;;1.67;0.90;;;10.80;94.10;;;;;;4991699;28;20088;-56
2020/12/24 03:11:43;;;;;;;1.13;0.50;;;10.80;94.00;;;;;;4991423;28;20034;-57
2020/12/24 03:14:09;;;;;;;1.02;0.70;;;10.80;94.00;;;;;;4973775;28;20037;-58
2020/12/24 03:16:35;;;;;;;2.00;0.70;;;10.70;93.90;;;;;;4989875;28;20042;-56
2020/12/24 03:19:00;;;;;;;1.60;0.60;;;10.70;93.90;;;;;;4987856;28;20470;-57
2020/12/24 03:21:26;;;;;;;1.02;0.57;;;10.70;93.90;;;;;;4989292;28;20061;-56
2020/12/24 03:23:51;;;;;;;1.52;0.75;;;10.70;93.90;;;;;;4988950;28;20062;-56
2020/12/24 03:26:17;;;;;;;2.22;0.75;;;10.70;93.90;;;;;;4987443;28;20050;-58
2020/12/24 03:28:42;;;;;;;2.28;0.80;;;10.70;94.00;;;;;;4983382;28;20039;-57
2020/12/24 03:31:08;;;;;;;1.15;0.50;;;10.70;93.90;;;;;;4990965;28;20556;-58
2020/12/24 03:33:33;;;;;;;1.50;0.70;;;10.70;94.00;;;;;;4991043;28;20077;-58
2020/12/24 03:35:59;;;;;;;1.17;0.70;;;10.60;94.00;;;;;;4991065;28;20130;-57
2020/12/24 03:38:24;;;;;;;1.55;0.70;;;10.70;94.00;;;;;;4989911;28;20026;-57
2020/12/24 03:40:50;;;;;;;1.65;0.75;;;10.70;94.00;;;;;;4988074;28;20498;-56
2020/12/24 03:43:15;;;;;;;2.97;0.80;;;10.60;94.00;;;;;;4987653;28;20034;-57
2020/12/24 03:45:41;;;;;;;1.95;0.70;;;10.60;94.00;;;;;;4988755;28;20092;-57
2020/12/24 03:48:06;;;;;;;1.90;0.68;;;10.60;94.00;;;;;;4986998;28;20058;-57
2020/12/24 03:50:32;;;;;;;2.25;0.85;;;10.60;94.00;;;;;;4987709;28;20486;-58
2020/12/24 03:52:57;;;;;;;1.10;0.60;;;10.60;94.00;;;;;;4987989;28;20034;-58
2020/12/24 03:55:23;;;;;;;1.98;1.10;;;10.60;94.00;;;;;;4989049;28;20516;-58
2020/12/24 03:57:48;;;;;;;2.90;0.75;;;10.60;94.00;;;;;;4989510;28;20030;-57
2020/12/24 04:00:14;;;;;;;2.90;0.80;;;10.60;94.00;;;;;;4990715;28;20046;-58
2020/12/24 04:02:39;;;;;;;2.70;0.68;;;10.60;94.00;;;;;;4990369;28;20073;-58
2020/12/24 04:05:05;;;;;;;1.40;0.75;;;10.60;94.00;;;;;;4972813;28;20105;-57
2020/12/24 04:07:30;;;;;;;2.45;0.70;;;10.60;93.90;;;;;;4988868;28;20096;-57
2020/12/24 04:09:56;;;;;;;1.33;0.60;;;10.60;94.00;;;;;;4990358;28;20466;-57
2020/12/24 04:12:21;;;;;;;1.25;0.52;;;10.60;93.90;;;;;;4990553;28;20030;-58
2020/12/24 04:14:47;;;;;;;1.00;0.50;;;10.60;94.00;;;;;;4986566;28;20090;-56
2020/12/24 04:17:12;;;;;;;1.75;0.90;;;10.60;93.90;;;;;;4990420;28;20025;-57
2020/12/24 04:19:38;;;;;;;1.30;0.70;;;10.50;93.90;;;;;;4984855;28;20035;-56
2020/12/24 04:22:03;;;;;;;0.93;0.55;;;10.50;93.90;;;;;;4984948;28;20490;-57
2020/12/24 04:24:29;;;;;;;0.35;0.30;;;10.50;93.90;;;;;;4987037;28;20058;-58
2020/12/24 04:26:55;;;;;;;2.40;0.50;;;10.50;93.90;;;;;;4986318;28;20105;-58
2020/12/24 04:29:21;;;;;;;1.40;0.80;;;10.50;94.00;;;;;;4988071;28;20026;-56
2020/12/24 04:31:46;;;;;;;1.33;0.60;;;10.50;93.90;;;;;;4986167;28;20502;-58
2020/12/24 04:34:12;;;;;;;0.73;0.40;;;10.50;93.90;;;;;;4984947;28;20054;-57
2020/12/24 04:36:37;;;;;;;0.65;0.32;;;10.50;93.90;;;;;;4985743;28;20022;-56
2020/12/24 04:39:03;;;;;;;1.23;0.50;;;10.50;93.90;;;;;;4988139;28;20034;-57
2020/12/24 04:41:28;;;;;;;2.15;0.60;;;10.50;93.80;;;;;;4987079;28;20058;-58
2020/12/24 04:43:54;;;;;;;1.13;0.60;;;10.50;93.80;;;;;;4988084;28;20410;-56
2020/12/24 04:46:20;;;;;;;1.00;0.60;;;10.40;93.90;;;;;;4991673;28;20047;-57
2020/12/24 04:48:45;;;;;;;1.50;0.40;;;10.40;93.80;;;;;;4972117;28;20058;-58
2020/12/24 04:51:11;;;;;;;0.68;0.47;;;10.40;94.20;;;;;;4975779;28;20034;-58
2020/12/24 04:53:37;;;;;;;1.20;0.50;;;10.40;93.90;;;;;;4976880;28;20025;-58
2020/12/24 04:56:04;;;;;;;1.00;0.55;;;10.50;93.90;;;;;;4993708;28;20027;-57
2020/12/24 04:58:29;;;;;;;1.80;0.63;;;10.40;93.90;;;;;;4991647;28;20037;-57
2020/12/24 05:00:55;;;;;;;0.93;0.50;;;10.40;93.80;;;;;;4987689;28;20031;-57
2020/12/24 05:03:20;;;;;;;1.42;0.60;;;10.40;93.80;;;;;;4972461;28;20445;-58
2020/12/24 05:05:46;;;;;;;0.80;0.52;;;10.40;93.80;;;;;;4989729;28;20109;-57
2020/12/24 05:08:11;;;;;;;2.60;0.68;;;10.40;93.90;;;;;;4993550;28;20034;-57
2020/12/24 05:10:37;;;;;;;1.73;0.52;;;10.40;93.90;;;;;;4993138;28;20034;-57
2020/12/24 05:13:16;;;;;;;0.90;0.50;;;10.40;93.90;;;;;;4991032;28;20050;-57
2020/12/24 05:15:41;;;;;;;0.60;0.40;;;10.40;93.80;;;;;;4993512;28;20036;-58
2020/12/24 05:18:19;;;;;;;1.35;0.60;;;10.30;93.80;;;;;;4994538;28;20373;-57
2020/12/24 05:20:45;;;;;;;0.60;0.40;;;10.30;93.80;;;;;;4991461;28;20056;-58
2020/12/24 05:23:14;;;;;;;1.95;0.73;;;10.30;93.80;;;;;;4992068;28;20037;-57
2020/12/24 05:25:40;;;;;;;0.73;0.43;;;10.30;93.80;;;;;;4989276;28;20477;-56
2020/12/24 05:28:06;;;;;;;0.68;0.47;;;10.30;94.10;;;;;;4972391;28;20026;-57
2020/12/24 05:30:32;;;;;;;0.88;0.65;;;10.30;93.80;;;;;;4991665;28;20069;-57
2020/12/24 05:32:58;;;;;;;0.75;0.38;;;10.30;93.80;;;;;;4993490;28;20402;-57
2020/12/24 05:35:24;;;;;;;1.95;0.40;;;10.30;93.80;;;;;;4991819;28;20041;-58
2020/12/24 05:37:50;;;;;;;1.50;0.50;;;10.30;93.80;;;;;;4992384;28;20498;-56
2020/12/24 05:40:26;;;;;;;0.82;0.40;;;10.30;93.80;;;;;;4991906;28;20315;-57
2020/12/24 05:43:01;;;;;;;0.57;0.30;;;10.30;93.70;;;;;;4984986;28;20015;-57
2020/12/24 05:45:30;;;;;;;1.05;0.55;;;10.30;93.70;;;;;;4986727;28;20376;-57
2020/12/24 05:48:15;;;;;;;0.80;0.32;;;10.30;93.60;;;;;;4991903;28;20042;-57
2020/12/24 05:50:42;;;;;;;1.35;0.47;;;10.20;93.60;;;;;;4988803;28;20033;-58
2020/12/24 05:53:08;;;;;;;2.13;0.65;;;10.30;93.60;;;;;;4987297;28;20043;-58
2020/12/24 05:55:34;;;;;;;0.85;0.47;;;10.30;93.60;;;;;;4990671;28;20113;-57
2020/12/24 05:58:00;;;;;;;1.25;0.60;;;10.20;93.60;;;;;;4987044;28;20078;-57
2020/12/24 06:00:32;;;;;;;0.80;0.30;;;10.20;93.60;;;;;;4990522;28;20034;-57
2020/12/24 06:03:11;;;;;;;1.15;0.30;;;10.20;93.60;;;;;;4986145;28;20189;-57
2020/12/24 06:05:58;;;;;;;0.50;0.40;;;10.20;93.70;;;;;;4984145;28;20486;-57
2020/12/24 06:08:25;;;;;;;0.93;0.30;;;10.20;93.70;;;;;;4989551;28;20022;-57
2020/12/24 06:11:06;;;;;;;0.77;0.30;;;10.20;93.70;;;;;;4992700;28;20025;-58
2020/12/24 06:13:48;;;;;;;1.30;0.68;;;10.10;93.70;;;;;;4969210;28;20038;-57
2020/12/24 06:16:14;;;;;;;0.95;0.40;;;10.20;93.70;;;;;;4990729;28;20466;-58
2020/12/24 06:18:44;;;;;;;0.55;0.32;;;10.10;93.70;;;;;;4957567;28;20036;-57
2020/12/24 06:21:13;;;;;;;0.63;0.40;;;10.10;93.70;;;;;;4992416;28;20061;-56
2020/12/24 06:23:38;;;;;;;0.73;0.40;;;10.10;93.70;;;;;;4987560;28;20266;-57
2020/12/24 06:26:05;;;;;;;0.40;0.40;;;10.10;93.70;;;;;;4971115;28;20113;-58
2020/12/24 06:28:32;;;;;;;0.40;0.30;;;10.10;93.70;;;;;;4985680;28;20026;-56
2020/12/24 06:30:59;;;;;;;1.13;0.43;;;10.10;93.70;;;;;;4986311;28;20073;-57
2020/12/24 06:33:28;;;;;;;0.30;0.30;;;10.10;93.70;;;;;;4986248;28;20058;-58
2020/12/24 06:35:53;;;;;;;1.20;0.43;;;10.10;93.70;;;;;;4972109;28;20030;-58
2020/12/24 06:38:39;;;;;;;1.50;0.30;;;10.10;93.70;;;;;;4991206;28;20125;-57
2020/12/24 06:41:23;;;;;;;0.65;0.30;;;10.10;93.70;;;;;;4991128;28;20027;-57
2020/12/24 06:43:48;;;;;;;1.08;0.50;;;10.10;93.70;;;;;;4988805;28;20049;-58
2020/12/24 06:46:14;;;;;;;1.88;0.32;;;10.10;93.70;;;;;;4991277;28;20026;-58
2020/12/24 06:48:39;;;;;;;0.70;0.50;;;10.10;93.70;;;;;;4992187;28;20425;-58
2020/12/24 06:51:05;;;;;;;0.50;0.30;;;10.00;93.70;;;;;;4991872;28;20022;-58
2020/12/24 06:53:34;;;;;;;0.50;0.28;;;10.10;93.70;;;;;;4990609;28;20525;-58
2020/12/24 06:56:16;;;;;;;0.60;0.40;;;10.10;93.70;;;;;;4988081;28;20536;-56
2020/12/24 06:59:01;;;;;;;0.60;0.35;;;10.10;93.70;;;;;;4987782;28;20022;-56
2020/12/24 07:01:29;;;;;;;0.70;0.30;;;10.00;93.60;;;;;;4971460;28;20381;-60
2020/12/24 07:03:56;;;;;;;1.33;0.40;;;10.10;93.70;;;;;;4989476;28;20026;-58
2020/12/24 07:06:41;;;;;;;0.50;0.38;;;10.00;93.60;;;;;;4986848;28;20113;-57
2020/12/24 07:09:31;;;;;;;0.77;0.32;;;10.00;93.60;;;;;;4989776;28;20049;-58
2020/12/24 07:11:57;;;;;;;0.55;0.40;;;10.10;93.70;;;;;;4966997;28;20031;-56
2020/12/24 07:14:25;;;;;;;0.50;0.32;;;10.00;93.60;;;;;;4989201;28;20509;-57
2020/12/24 07:16:53;;;;;;;0.50;0.25;;;10.00;93.60;;;;;;4987246;28;20049;-57
2020/12/24 07:19:20;;;;;;;0.55;0.32;;;10.00;93.60;;;;;;4983880;28;20027;-58
2020/12/24 07:21:47;;;;;;;0.88;0.30;;;10.00;93.60;;;;;;4983429;28;20022;-57
2020/12/24 07:24:14;;;;;;;0.50;0.40;;;10.00;93.60;;;;;;4985277;28;20047;-58
2020/12/24 07:26:41;;;;;;;0.88;0.40;;;10.00;93.60;;;;;;4991060;28;20494;-58
2020/12/24 07:29:06;;;;;;;0.82;0.60;;;10.00;93.60;;;;;;4989971;28;20471;-58
2020/12/24 07:31:32;;;;;;;0.60;0.35;;;10.00;93.60;;;;;;4957201;28;20030;-57
2020/12/24 07:34:01;;;;;;;1.80;0.50;;;10.00;93.60;;;;;;4989318;28;20540;-57
2020/12/24 07:36:27;;;;;;;0.57;0.40;;;10.00;93.60;;;;;;4971809;28;20030;-58
2020/12/24 07:38:52;;;;;;;1.10;0.40;;;10.00;93.60;;;;;;4973143;28;20027;-57
2020/12/24 07:41:18;;;;;;;0.40;0.30;;;10.00;93.60;;;;;;4989263;28;20083;-57
2020/12/24 07:43:44;;;;;;;1.48;0.30;;;10.00;93.60;;;;;;4988797;28;20054;-57
2020/12/24 07:46:09;;;;;;;0.40;0.25;;;10.00;93.60;;;;;;4990016;28;20030;-57
2020/12/24 07:48:35;;;;;;;0.40;0.30;;;10.00;93.60;;;;;;4984344;28;20645;-57
2020/12/24 07:51:09;;;;;;;0.93;0.60;;;10.00;93.50;;;;;;4976876;28;20053;-57
2020/12/24 07:53:34;;;;;;;0.85;0.45;;;10.00;93.50;;;;;;4988693;28;20406;-57
2020/12/24 07:56:08;;;;;;;0.82;0.60;;;10.00;93.50;;;;;;5000904;28;20034;-57
2020/12/24 07:58:34;;;;;;;1.65;0.63;;;10.00;93.50;;;;;;4980842;28;20029;-58
2020/12/24 08:01:01;;;;;;;1.50;0.60;;;10.00;93.50;;;;;;4986164;28;20026;-58
2020/12/24 08:03:27;;;;;;;0.73;0.43;;;10.00;93.50;;;;;;4989373;28;20043;-57
2020/12/24 08:06:00;;;;;;;0.90;0.70;;;10.00;93.50;;;;;;4988018;28;20100;-56
2020/12/24 08:08:26;;;;;;;1.08;0.60;;;9.90;93.50;;;;;;4985087;28;20474;-57
2020/12/24 08:10:51;;;;;;;0.85;0.52;;;10.00;93.50;;;;;;4987574;28;20034;-57
2020/12/24 08:13:20;;;;;;;1.08;0.55;;;9.90;93.30;;;;;;4982650;28;20039;-57
2020/12/24 08:15:46;;;;;;;1.75;0.73;;;9.90;93.20;;;;;;4974946;28;20051;-57
2020/12/24 08:18:12;;;;;;;1.58;0.60;;;9.90;93.00;;;;;;4965321;28;20030;-58
2020/12/24 08:20:45;;;;;;;1.95;0.60;;;9.90;92.70;;;;;;4979764;28;20033;-58
2020/12/24 08:23:30;;;;;;;0.65;0.47;;;9.90;92.40;;;;;;4972301;28;20031;-58
2020/12/24 08:25:56;;;;;;;1.10;0.55;;;9.90;92.30;;;;;;4965958;28;20049;-57
2020/12/24 08:28:25;;;;;;;1.50;0.73;;;9.80;92.30;;;;;;4981494;28;20105;-57
2020/12/24 08:30:50;;;;;;;0.73;0.60;;;9.80;92.20;;;;;;4979977;28;20038;-57
2020/12/24 08:33:19;;;;;;;1.10;0.70;;;9.90;92.20;;;;;;4968024;28;20038;-58
2020/12/24 08:35:45;;;;;;;1.73;0.90;;;9.90;92.10;;;;;;4979461;28;20401;-58
2020/12/24 08:38:17;;;;;;;1.95;0.73;;;9.90;92.10;;;;;;4978746;28;20022;-56
2020/12/24 08:40:43;;;;;;;1.00;0.70;;;9.90;92.10;;;;;;4982926;28;20037;-58
2020/12/24 08:43:09;;;;;;;1.95;0.88;;;9.80;91.90;;;;;;4978432;28;20475;-57
2020/12/24 08:45:50;;;;;;;1.35;0.65;;;9.80;91.90;;;;;;5002604;28;20062;-57
2020/12/24 08:48:32;;;;;;;2.20;0.77;;;9.80;91.70;;;;;;4981538;28;20126;-58
2020/12/24 08:50:57;;;;;;;1.67;0.80;;;9.80;91.60;;;;;;4985476;28;20026;-58
2020/12/24 08:53:28;;;;;;;1.10;0.50;;;9.80;91.40;;;;;;4982728;28;20088;-58
2020/12/24 08:55:56;;;;;;;1.98;0.70;;;9.80;91.10;;;;;;4986062;28;20077;-58
2020/12/24 08:58:22;;;;;;;2.75;0.90;;;9.80;91.00;;;;;;4981977;28;20030;-58
2020/12/24 09:00:47;;;;;;;3.33;0.63;;;9.80;90.90;;;;;;4988770;28;20061;-58
2020/12/24 09:03:25;;;;;;;3.33;0.80;;;9.80;90.80;;;;;;4981205;28;20517;-58
2020/12/24 09:05:51;;;;;;;2.20;0.80;;;9.80;90.60;;;;;;4987475;28;20030;-58
2020/12/24 09:08:26;;;;;;;3.10;0.85;;;9.80;90.60;;;;;;4987853;28;20034;-57
2020/12/24 09:10:52;;;;;;;1.55;0.70;;;9.80;90.40;;;;;;4982237;28;20022;-58
2020/12/24 09:13:17;;;;;;;2.72;0.57;;;9.80;90.30;;;;;;4984219;28;20038;-57
2020/12/24 09:15:43;;;;;;;2.97;0.90;;;9.70;90.20;;;;;;4983914;28;20030;-58
2020/12/24 09:18:09;;;;;;;1.27;0.63;;;9.80;90.10;;;;;;4982356;28;20529;-57
2020/12/24 09:20:34;;;;;;;1.55;0.68;;;9.70;90.00;;;;;;4995117;28;20058;-57
2020/12/24 09:23:10;;;;;;;1.70;0.75;;;9.80;90.00;;;;;;4983299;28;20030;-57
2020/12/24 09:25:37;;;;;;;1.83;0.90;;;9.70;89.50;;;;;;4980817;28;20037;-57
2020/12/24 09:28:04;;;;;;;2.50;0.77;;;9.70;89.50;;;;;;4988139;28;20058;-57
2020/12/24 09:30:30;;;;;;;2.60;0.90;;;9.70;88.80;;;;;;4984943;28;20042;-58
2020/12/24 09:32:56;;;;;;;4.75;0.90;;;9.70;88.40;;;;;;4982792;28;20023;-59
2020/12/24 09:35:23;;;;;;;6.35;1.00;;;9.70;88.10;;;;;;4977087;28;20046;-57
2020/12/24 09:37:49;;;;;;;6.45;0.90;;;9.70;87.10;;;;;;4969962;28;20018;-59
2020/12/24 09:40:14;;;;;;;6.32;1.50;;;9.70;87.60;;;;;;5001558;28;20027;-58
2020/12/24 09:42:40;;;;;;;7.40;1.40;;;9.70;87.70;;;;;;4985694;28;20045;-57
2020/12/24 09:45:05;;;;;;;9.52;1.02;;;9.70;86.90;;;;;;5005576;28;20046;-56
2020/12/24 09:47:31;;;;;;;5.97;0.82;;;9.70;86.70;;;;;;4993605;28;20043;-58
2020/12/24 09:49:56;;;;;;;21.50;1.98;;;9.70;86.70;;;;;;4987505;28;20097;-57
2020/12/24 09:52:22;;;;;;;5.70;0.82;;;9.70;86.60;;;;;;4991178;28;20049;-57
2020/12/24 09:54:47;;;;;;;4.60;0.95;;;9.80;86.90;;;;;;4991715;28;20486;-57
2020/12/24 09:57:13;;;;;;;4.80;0.80;;;9.70;87.10;;;;;;4988763;28;20050;-58
2020/12/24 09:59:38;;;;;;;4.25;0.80;;;9.70;86.90;;;;;;4986243;28;20038;-58
2020/12/24 10:02:04;;;;;;;6.13;0.82;;;9.80;86.60;;;;;;4988327;28;20433;-57
2020/12/24 10:04:29;;;;;;;1.33;0.63;;;9.80;86.90;;;;;;4991669;28;20404;-58
2020/12/24 10:06:55;;;;;;;4.25;0.98;;;9.70;87.00;;;;;;4991357;28;20035;-58
2020/12/24 10:09:20;;;;;;;4.00;1.02;;;9.80;86.90;;;;;;4974187;28;20026;-57
2020/12/24 10:11:47;;;;;;;6.45;1.13;;;9.80;86.90;;;;;;4985925;28;20386;-58
2020/12/24 10:14:12;;;;;;;6.00;1.15;;;9.80;87.00;;;;;;4989163;28;20073;-57
2020/12/24 10:16:38;;;;;;;8.13;1.60;;;9.80;86.80;;;;;;4986242;28;20058;-58
2020/12/24 10:19:03;;;;;;;3.78;1.27;;;9.80;86.90;;;;;;5005057;28;20466;-58
2020/12/24 10:21:29;;;;;;;7.72;1.15;;;9.80;86.50;;;;;;4990341;28;20026;-57
2020/12/24 10:23:54;;;;;;;11.75;1.75;;;9.80;87.30;;;;;;4990083;28;20041;-57
2020/12/24 10:26:20;;;;;;;14.10;2.17;;;9.80;87.30;;;;;;4988315;28;20031;-57
2020/12/24 10:28:46;;;;;;;13.57;1.70;;;9.80;87.20;;;;;;4991195;28;20026;-56
2020/12/24 10:31:11;;;;;;;12.70;2.28;;;9.80;87.60;;;;;;4988683;28;20026;-59
2020/12/24 10:33:37;;;;;;;12.75;2.22;;;9.80;87.70;;;;;;4991298;28;20039;-56
2020/12/24 10:36:03;;;;;;;53.75;4.07;;;9.90;87.30;;;;;;4991129;28;20058;-57
2020/12/24 10:38:28;;;;;;;21.42;3.63;;;9.90;87.40;;;;;;4985835;28;20041;-57
2020/12/24 10:40:54;;;;;;;20.73;1.90;;;9.90;87.50;;;;;;4985879;28;20110;-58
2020/12/24 10:43:19;;;;;;;15.75;2.05;;;9.90;87.80;;;;;;4984727;28;20029;-58
2020/12/24 10:45:45;;;;;;;20.13;2.33;;;9.90;87.50;;;;;;4990619;28;20430;-56
2020/12/24 10:48:10;;;;;;;12.30;2.13;;;9.90;87.50;;;;;;4984358;28;20474;-58
2020/12/24 10:50:36;;;;;;;8.07;1.25;;;9.90;87.50;;;;;;4978264;28;20026;-57
2020/12/24 10:53:01;;;;;;;19.67;2.05;;;9.90;87.30;;;;;;4984858;28;20516;-57
2020/12/24 10:55:27;;;;;;;7.18;1.58;;;9.90;87.40;;;;;;4982419;28;20490;-58
2020/12/24 10:57:52;;;;;;;8.15;1.33;;;9.90;86.80;;;;;;4988473;28;20034;-58
2020/12/24 11:00:18;;;;;;;12.50;1.40;;;9.90;87.30;;;;;;4991596;28;20033;-58
2020/12/24 11:02:43;;;;;;;12.23;1.40;;;9.90;87.00;;;;;;4985055;28;20034;-58
2020/12/24 11:05:09;;;;;;;5.50;1.17;;;9.90;87.50;;;;;;4984364;28;20030;-60
2020/12/24 11:07:34;;;;;;;6.20;1.52;;;9.90;87.60;;;;;;4981934;28;20070;-59
2020/12/24 11:10:00;;;;;;;10.95;1.40;;;9.90;87.70;;;;;;4988750;28;20481;-57
2020/12/24 11:12:26;;;;;;;7.07;1.65;;;9.90;88.00;;;;;;4988173;28;20465;-59
2020/12/24 11:14:51;;;;;;;7.93;1.63;;;9.90;88.00;;;;;;5000746;28;20092;-56
2020/12/24 11:17:17;;;;;;;5.50;1.35;;;9.90;87.80;;;;;;4986256;28;20046;-65
2020/12/24 11:19:42;;;;;;;6.53;1.23;;;10.00;87.80;;;;;;4984851;28;20125;-58
2020/12/24 11:22:08;;;;;;;8.35;1.50;;;10.10;88.00;;;;;;4986231;28;20058;-57
2020/12/24 11:24:33;;;;;;;3.80;1.13;;;10.00;88.30;;;;;;4988847;28;20050;-57
2020/12/24 11:26:59;;;;;;;3.08;0.95;;;10.00;88.30;;;;;;4983038;28;20080;-58
2020/12/24 11:29:24;;;;;;;4.88;1.27;;;10.00;88.30;;;;;;4983544;28;20125;-58
2020/12/24 11:31:50;;;;;;;5.43;1.27;;;10.00;88.20;;;;;;4976621;28;20549;-58
2020/12/24 11:34:17;;;;;;;5.55;1.38;;;10.00;88.00;;;;;;4986304;28;20042;-58
2020/12/24 11:36:44;;;;;;;5.22;1.52;;;10.00;88.00;;;;;;4985125;28;20271;-57
2020/12/24 11:39:09;;;;;;;4.63;1.20;;;9.90;88.00;;;;;;4985099;28;20026;-59
2020/12/24 11:41:35;;;;;;;4.95;1.30;;;10.00;88.10;;;;;;4984935;28;20391;-58
2020/12/24 11:44:00;;;;;;;3.90;1.60;;;10.00;88.20;;;;;;4984994;28;20074;-59
2020/12/24 11:46:26;;;;;;;5.63;1.10;;;10.00;88.20;;;;;;4987436;28;20038;-58
2020/12/24 11:48:52;;;;;;;4.90;1.30;;;10.00;88.30;;;;;;4987278;28;20037;-57
2020/12/24 11:51:18;;;;;;;4.93;1.38;;;10.00;88.20;;;;;;4988797;28;20030;-58
2020/12/24 11:53:44;;;;;;;3.00;0.95;;;10.00;88.30;;;;;;4990291;28;20426;-58
2020/12/24 11:56:13;;;;;;;5.35;1.00;;;10.00;88.10;;;;;;4990935;28;20070;-58
2020/12/24 11:58:39;;;;;;;3.17;1.00;;;10.00;87.90;;;;;;4987157;28;20553;-58
2020/12/24 12:01:05;;;;;;;5.38;1.08;;;10.00;87.80;;;;;;4987712;28;20043;-58
2020/12/24 12:03:30;;;;;;;2.40;1.00;;;10.00;88.00;;;;;;4992628;28;20108;-57
2020/12/24 12:05:56;;;;;;;3.20;1.95;;;10.10;88.20;;;;;;4986871;28;20453;-57
2020/12/24 12:08:22;;;;;;;4.38;1.08;;;10.10;88.20;;;;;;5006659;28;20478;-57
2020/12/24 12:10:47;;;;;;;6.75;0.95;;;10.00;88.30;;;;;;4987301;28;20375;-58
2020/12/24 12:13:13;;;;;;;9.20;1.00;;;10.10;88.20;;;;;;5001270;28;20050;-58
2020/12/24 12:15:38;;;;;;;9.00;1.67;;;10.10;88.30;;;;;;4993166;28;20030;-57
2020/12/24 12:18:06;;;;;;;6.38;1.17;;;10.00;88.40;;;;;;4987737;28;20186;-59
2020/12/24 12:20:32;;;;;;;4.85;1.15;;;10.10;88.30;;;;;;5006661;28;20551;-56
2020/12/24 12:22:58;;;;;;;3.28;1.05;;;10.00;88.20;;;;;;4986629;28;20489;-57
2020/12/24 12:25:23;;;;;;;3.95;1.05;;;10.10;88.30;;;;;;4986960;28;20038;-57
2020/12/24 12:27:49;;;;;;;5.03;1.17;;;10.10;88.10;;;;;;4992776;28;20057;-58
2020/12/24 12:30:14;;;;;;;3.70;1.00;;;10.10;88.20;;;;;;4974970;28;20030;-57
2020/12/24 12:32:40;;;;;;;2.40;0.88;;;10.10;88.00;;;;;;4992323;28;20037;-57
2020/12/24 12:35:06;;;;;;;3.13;1.17;;;10.10;88.10;;;;;;4982683;28;20433;-57
2020/12/24 12:37:35;;;;;;;2.63;0.90;;;10.10;88.20;;;;;;4985220;28;20418;-58
2020/12/24 12:40:02;;;;;;;2.97;0.98;;;10.10;88.30;;;;;;4980009;28;20038;-57
2020/12/24 12:42:28;;;;;;;4.72;1.27;;;10.10;88.30;;;;;;4989302;28;20033;-57
2020/12/24 12:44:53;;;;;;;3.10;0.93;;;10.10;88.30;;;;;;4988893;28;20497;-57
2020/12/24 12:47:19;;;;;;;5.57;0.85;;;10.10;88.30;;;;;;4978594;28;20118;-58